sensor_id;sensor_type;location;lat;lon;timestamp;temperature;humidity
11934;DHT22;6026;48.784;9.198;2023-09-12T00:01:05;21.50;99.90
11934;DHT22;6026;48.784;9.198;2023-09-12T00:03:31;21.50;99.90
11934;DHT22;6026;48.784;9.198;2023-09-12T00:05:58;21.40;99.90
11934;DHT22;6026;48.784;9.198;2023-09-12T00:08:25;21.40;99.90
11934;DHT22;6026;48.784;9.198;2023-09-12T00:13:26;21.50;99.90
11934;DHT22;6026;48.784;9.198;2023-09-12T00:15:51;21.40;99.90
11934;DHT22;6026;48.784;9.198;2023-09-12T00:18:17;21.40;99.90
11934;DHT22;6026;48.784;9.198;2023-09-12T00:20:43;21.40;99.90
11934;DHT22;6026;48.784;9.198;2023-09-12T00:23:08;21.40;99.90
11934;DHT22;6026;48.784;9.198;2023-09-12T00:25:34;21.40;99.90
11934;DHT22;6026;48.784;9.198;2023-09-12T00:27:59;21.30;99.90
11934;DHT22;6026;48.784;9.198;2023-09-12T00:30:25;21.30;99.90
11934;DHT22;6026;48.784;9.198;2023-09-12T00:32:50;21.20;99.90
11934;DHT22;6026;48.784;9.198;2023-09-12T00:35:16;21.20;99.90
11934;DHT22;6026;48.784;9.198;2023-09-12T00:37:41;21.20;99.90
11934;DHT22;6026;48.784;9.198;2023-09-12T00:40:07;21.10;99.90
11934;DHT22;6026;48.784;9.198;2023-09-12T00:42:33;21.10;99.90
11934;DHT22;6026;48.784;9.198;2023-09-12T00:44:58;21.10;99.90
11934;DHT22;6026;48.784;9.198;2023-09-12T00:47:25;21.00;99.90
11934;DHT22;6026;48.784;9.198;2023-09-12T00:49:52;21.00;99.90
11934;DHT22;6026;48.784;9.198;2023-09-12T00:52:19;21.00;99.90
11934;DHT22;6026;48.784;9.198;2023-09-12T00:54:46;21.00;99.90
11934;DHT22;6026;48.784;9.198;2023-09-12T00:57:11;21.00;99.90
11934;DHT22;6026;48.784;9.198;2023-09-12T00:59:37;20.90;99.90
11934;DHT22;6026;48.784;9.198;2023-09-12T01:02:03;20.90;99.90
11934;DHT22;6026;48.784;9.198;2023-09-12T01:04:29;20.90;99.90
11934;DHT22;6026;48.784;9.198;2023-09-12T01:06:55;20.80;99.90
11934;DHT22;6026;48.784;9.198;2023-09-12T01:09:20;20.80;99.90
11934;DHT22;6026;48.784;9.198;2023-09-12T01:11:46;20.80;99.90
11934;DHT22;6026;48.784;9.198;2023-09-12T01:14:11;20.70;99.90
11934;DHT22;6026;48.784;9.198;2023-09-12T01:16:37;20.70;99.90
11934;DHT22;6026;48.784;9.198;2023-09-12T01:19:04;20.70;99.90
11934;DHT22;6026;48.784;9.198;2023-09-12T01:29:39;20.50;99.90
11934;DHT22;6026;48.784;9.198;2023-09-12T01:32:06;20.20;99.90
11934;DHT22;6026;48.784;9.198;2023-09-12T01:34:31;20.10;99.90
11934;DHT22;6026;48.784;9.198;2023-09-12T01:36:57;20.10;99.90
11934;DHT22;6026;48.784;9.198;2023-09-12T01:39:22;20.10;99.90
11934;DHT22;6026;48.784;9.198;2023-09-12T01:41:49;20.20;99.90
11934;DHT22;6026;48.784;9.198;2023-09-12T01:44:18;20.10;99.90
11934;DHT22;6026;48.784;9.198;2023-09-12T01:46:44;20.20;99.90
11934;DHT22;6026;48.784;9.198;2023-09-12T01:49:11;20.10;99.90
11934;DHT22;6026;48.784;9.198;2023-09-12T01:51:38;20.10;99.90
11934;DHT22;6026;48.784;9.198;2023-09-12T01:54:04;20.20;99.90
11934;DHT22;6026;48.784;9.198;2023-09-12T01:56:31;20.20;99.90
11934;DHT22;6026;48.784;9.198;2023-09-12T01:58:57;20.10;99.90
11934;DHT22;6026;48.784;9.198;2023-09-12T02:01:23;20.10;99.90
11934;DHT22;6026;48.784;9.198;2023-09-12T02:03:52;20.10;99.90
11934;DHT22;6026;48.784;9.198;2023-09-12T02:06:17;19.90;99.90
11934;DHT22;6026;48.784;9.198;2023-09-12T02:08:43;19.90;99.90
11934;DHT22;6026;48.784;9.198;2023-09-12T02:11:08;19.80;99.90
11934;DHT22;6026;48.784;9.198;2023-09-12T02:13:34;19.60;99.90
11934;DHT22;6026;48.784;9.198;2023-09-12T02:16:00;19.60;99.90
11934;DHT22;6026;48.784;9.198;2023-09-12T02:18:26;19.70;99.90
11934;DHT22;6026;48.784;9.198;2023-09-12T02:20:51;19.80;99.90
11934;DHT22;6026;48.784;9.198;2023-09-12T02:23:17;19.80;99.90
11934;DHT22;6026;48.784;9.198;2023-09-12T02:25:42;19.70;99.90
11934;DHT22;6026;48.784;9.198;2023-09-12T02:28:08;19.80;99.90
11934;DHT22;6026;48.784;9.198;2023-09-12T02:30:34;19.60;99.90
11934;DHT22;6026;48.784;9.198;2023-09-12T02:32:59;19.70;99.90
11934;DHT22;6026;48.784;9.198;2023-09-12T02:35:27;19.70;99.90
11934;DHT22;6026;48.784;9.198;2023-09-12T02:37:52;19.70;99.90
11934;DHT22;6026;48.784;9.198;2023-09-12T02:40:18;19.60;99.90
11934;DHT22;6026;48.784;9.198;2023-09-12T02:42:44;19.70;99.90
11934;DHT22;6026;48.784;9.198;2023-09-12T02:45:10;19.70;99.90
11934;DHT22;6026;48.784;9.198;2023-09-12T02:47:35;19.60;99.90
11934;DHT22;6026;48.784;9.198;2023-09-12T02:50:01;19.60;99.90
11934;DHT22;6026;48.784;9.198;2023-09-12T02:52:26;19.60;99.90
11934;DHT22;6026;48.784;9.198;2023-09-12T02:54:52;19.60;99.90
11934;DHT22;6026;48.784;9.198;2023-09-12T02:57:18;19.60;99.90
11934;DHT22;6026;48.784;9.198;2023-09-12T02:59:43;19.60;99.90
11934;DHT22;6026;48.784;9.198;2023-09-12T03:02:09;19.60;99.90
11934;DHT22;6026;48.784;9.198;2023-09-12T03:04:35;19.50;99.90
11934;DHT22;6026;48.784;9.198;2023-09-12T03:07:01;19.60;99.90
11934;DHT22;6026;48.784;9.198;2023-09-12T03:09:26;19.50;99.90
11934;DHT22;6026;48.784;9.198;2023-09-12T03:11:52;19.40;99.90
11934;DHT22;6026;48.784;9.198;2023-09-12T03:14:17;19.40;99.90
11934;DHT22;6026;48.784;9.198;2023-09-12T03:16:43;19.40;99.90
11934;DHT22;6026;48.784;9.198;2023-09-12T03:19:08;19.40;99.90
11934;DHT22;6026;48.784;9.198;2023-09-12T03:21:34;19.40;99.90
11934;DHT22;6026;48.784;9.198;2023-09-12T03:24:00;19.40;99.90
11934;DHT22;6026;48.784;9.198;2023-09-12T03:26:26;19.30;99.90
11934;DHT22;6026;48.784;9.198;2023-09-12T03:28:52;19.20;99.90
11934;DHT22;6026;48.784;9.198;2023-09-12T03:31:18;19.10;99.90
11934;DHT22;6026;48.784;9.198;2023-09-12T03:33:44;19.10;99.90
11934;DHT22;6026;48.784;9.198;2023-09-12T03:36:15;19.00;99.90
11934;DHT22;6026;48.784;9.198;2023-09-12T03:38:41;19.10;99.90
11934;DHT22;6026;48.784;9.198;2023-09-12T03:41:06;19.00;99.90
11934;DHT22;6026;48.784;9.198;2023-09-12T03:43:33;19.00;99.90
11934;DHT22;6026;48.784;9.198;2023-09-12T03:45:59;19.00;99.90
11934;DHT22;6026;48.784;9.198;2023-09-12T03:48:24;19.00;99.90
11934;DHT22;6026;48.784;9.198;2023-09-12T03:50:50;19.00;99.90
11934;DHT22;6026;48.784;9.198;2023-09-12T03:53:16;19.00;99.90
11934;DHT22;6026;48.784;9.198;2023-09-12T03:55:42;19.00;99.90
11934;DHT22;6026;48.784;9.198;2023-09-12T03:58:07;18.90;99.90
11934;DHT22;6026;48.784;9.198;2023-09-12T04:00:33;18.90;99.90
11934;DHT22;6026;48.784;9.198;2023-09-12T04:02:58;18.90;99.90
11934;DHT22;6026;48.784;9.198;2023-09-12T04:05:25;18.80;99.90
11934;DHT22;6026;48.784;9.198;2023-09-12T04:07:51;18.80;99.90
11934;DHT22;6026;48.784;9.198;2023-09-12T04:10:20;18.80;99.90
11934;DHT22;6026;48.784;9.198;2023-09-12T04:12:46;18.70;99.90
11934;DHT22;6026;48.784;9.198;2023-09-12T04:15:12;18.70;99.90
11934;DHT22;6026;48.784;9.198;2023-09-12T04:17:37;18.70;99.90
11934;DHT22;6026;48.784;9.198;2023-09-12T04:20:03;18.60;99.90
11934;DHT22;6026;48.784;9.198;2023-09-12T04:22:30;18.60;99.90
11934;DHT22;6026;48.784;9.198;2023-09-12T04:24:56;18.50;99.90
11934;DHT22;6026;48.784;9.198;2023-09-12T04:27:21;18.50;99.90
11934;DHT22;6026;48.784;9.198;2023-09-12T04:29:47;18.60;99.90
11934;DHT22;6026;48.784;9.198;2023-09-12T04:32:12;18.60;99.90
11934;DHT22;6026;48.784;9.198;2023-09-12T04:34:38;18.60;99.90
11934;DHT22;6026;48.784;9.198;2023-09-12T04:37:03;18.50;99.90
11934;DHT22;6026;48.784;9.198;2023-09-12T04:39:30;18.60;99.90
11934;DHT22;6026;48.784;9.198;2023-09-12T04:41:56;18.50;99.90
11934;DHT22;6026;48.784;9.198;2023-09-12T04:44:22;18.50;99.90
11934;DHT22;6026;48.784;9.198;2023-09-12T04:46:47;18.40;99.90
11934;DHT22;6026;48.784;9.198;2023-09-12T04:49:13;18.40;99.90
11934;DHT22;6026;48.784;9.198;2023-09-12T04:51:39;18.40;99.90
11934;DHT22;6026;48.784;9.198;2023-09-12T04:54:05;18.40;99.90
11934;DHT22;6026;48.784;9.198;2023-09-12T04:56:31;18.50;99.90
11934;DHT22;6026;48.784;9.198;2023-09-12T04:58:57;18.40;99.90
11934;DHT22;6026;48.784;9.198;2023-09-12T05:01:22;18.50;99.90
11934;DHT22;6026;48.784;9.198;2023-09-12T05:03:48;18.40;99.90
11934;DHT22;6026;48.784;9.198;2023-09-12T05:06:13;18.50;99.90
11934;DHT22;6026;48.784;9.198;2023-09-12T05:08:39;18.50;99.90
11934;DHT22;6026;48.784;9.198;2023-09-12T05:11:05;18.60;99.90
11934;DHT22;6026;48.784;9.198;2023-09-12T05:13:30;18.60;99.90
11934;DHT22;6026;48.784;9.198;2023-09-12T05:15:56;18.70;99.90
11934;DHT22;6026;48.784;9.198;2023-09-12T05:18:22;18.70;99.90
11934;DHT22;6026;48.784;9.198;2023-09-12T05:20:48;18.70;99.90
11934;DHT22;6026;48.784;9.198;2023-09-12T05:23:14;18.70;99.90
11934;DHT22;6026;48.784;9.198;2023-09-12T05:25:39;18.70;99.90
11934;DHT22;6026;48.784;9.198;2023-09-12T05:28:05;18.70;99.90
11934;DHT22;6026;48.784;9.198;2023-09-12T05:30:31;18.70;99.90
11934;DHT22;6026;48.784;9.198;2023-09-12T05:32:56;18.80;99.90
11934;DHT22;6026;48.784;9.198;2023-09-12T05:35:22;18.70;99.90
11934;DHT22;6026;48.784;9.198;2023-09-12T05:37:47;18.70;99.90
11934;DHT22;6026;48.784;9.198;2023-09-12T05:40:13;18.60;99.90
11934;DHT22;6026;48.784;9.198;2023-09-12T05:42:39;18.70;99.90
11934;DHT22;6026;48.784;9.198;2023-09-12T05:45:05;18.70;99.90
11934;DHT22;6026;48.784;9.198;2023-09-12T05:47:31;18.80;99.90
11934;DHT22;6026;48.784;9.198;2023-09-12T05:49:56;19.10;99.90
11934;DHT22;6026;48.784;9.198;2023-09-12T05:52:24;19.50;99.90
11934;DHT22;6026;48.784;9.198;2023-09-12T05:54:49;19.70;99.90
11934;DHT22;6026;48.784;9.198;2023-09-12T05:57:16;20.00;99.90
11934;DHT22;6026;48.784;9.198;2023-09-12T05:59:41;20.50;99.90
11934;DHT22;6026;48.784;9.198;2023-09-12T06:02:07;20.90;99.90
11934;DHT22;6026;48.784;9.198;2023-09-12T06:04:35;21.20;99.90
11934;DHT22;6026;48.784;9.198;2023-09-12T06:07:02;21.30;99.90
11934;DHT22;6026;48.784;9.198;2023-09-12T06:09:28;21.20;99.90
11934;DHT22;6026;48.784;9.198;2023-09-12T06:11:54;21.10;99.90
11934;DHT22;6026;48.784;9.198;2023-09-12T06:14:19;21.10;99.90
11934;DHT22;6026;48.784;9.198;2023-09-12T06:16:45;21.00;99.90
11934;DHT22;6026;48.784;9.198;2023-09-12T06:19:11;20.80;99.90
11934;DHT22;6026;48.784;9.198;2023-09-12T06:21:36;20.90;99.90
11934;DHT22;6026;48.784;9.198;2023-09-12T06:24:13;20.90;99.90
11934;DHT22;6026;48.784;9.198;2023-09-12T06:26:39;20.90;99.90
11934;DHT22;6026;48.784;9.198;2023-09-12T06:29:05;20.90;99.90
11934;DHT22;6026;48.784;9.198;2023-09-12T06:31:31;21.00;99.90
11934;DHT22;6026;48.784;9.198;2023-09-12T06:33:57;21.40;99.90
11934;DHT22;6026;48.784;9.198;2023-09-12T06:36:26;21.80;99.90
11934;DHT22;6026;48.784;9.198;2023-09-12T06:38:55;21.90;99.90
11934;DHT22;6026;48.784;9.198;2023-09-12T06:41:21;21.90;99.90
11934;DHT22;6026;48.784;9.198;2023-09-12T06:43:46;22.30;99.90
11934;DHT22;6026;48.784;9.198;2023-09-12T06:46:12;22.30;99.90
11934;DHT22;6026;48.784;9.198;2023-09-12T06:48:38;22.20;99.90
11934;DHT22;6026;48.784;9.198;2023-09-12T06:51:08;22.30;99.90
11934;DHT22;6026;48.784;9.198;2023-09-12T06:53:34;22.40;99.90
11934;DHT22;6026;48.784;9.198;2023-09-12T06:56:01;22.40;99.90
11934;DHT22;6026;48.784;9.198;2023-09-12T06:58:27;22.30;99.90
11934;DHT22;6026;48.784;9.198;2023-09-12T07:00:52;22.20;99.90
11934;DHT22;6026;48.784;9.198;2023-09-12T07:03:18;22.20;99.90
11934;DHT22;6026;48.784;9.198;2023-09-12T07:05:44;22.20;99.90
11934;DHT22;6026;48.784;9.198;2023-09-12T07:08:10;22.30;99.90
11934;DHT22;6026;48.784;9.198;2023-09-12T07:10:35;22.40;99.90
11934;DHT22;6026;48.784;9.198;2023-09-12T07:13:01;22.70;99.90
11934;DHT22;6026;48.784;9.198;2023-09-12T07:15:27;22.80;99.90
11934;DHT22;6026;48.784;9.198;2023-09-12T07:17:53;23.20;99.90
11934;DHT22;6026;48.784;9.198;2023-09-12T07:20:18;23.90;99.90
11934;DHT22;6026;48.784;9.198;2023-09-12T07:22:46;24.50;99.90
11934;DHT22;6026;48.784;9.198;2023-09-12T07:25:15;24.60;99.90
11934;DHT22;6026;48.784;9.198;2023-09-12T07:27:41;24.80;99.90
11934;DHT22;6026;48.784;9.198;2023-09-12T07:30:07;24.80;99.90
11934;DHT22;6026;48.784;9.198;2023-09-12T07:32:33;24.90;99.90
11934;DHT22;6026;48.784;9.198;2023-09-12T07:34:58;25.20;99.90
11934;DHT22;6026;48.784;9.198;2023-09-12T07:37:24;25.30;99.90
11934;DHT22;6026;48.784;9.198;2023-09-12T07:39:50;25.60;99.90
11934;DHT22;6026;48.784;9.198;2023-09-12T07:42:15;25.60;99.90
11934;DHT22;6026;48.784;9.198;2023-09-12T07:44:41;25.40;99.90
11934;DHT22;6026;48.784;9.198;2023-09-12T07:47:07;25.30;99.90
11934;DHT22;6026;48.784;9.198;2023-09-12T07:49:32;25.70;99.90
11934;DHT22;6026;48.784;9.198;2023-09-12T07:51:58;26.10;99.90
11934;DHT22;6026;48.784;9.198;2023-09-12T07:54:24;26.80;99.90
11934;DHT22;6026;48.784;9.198;2023-09-12T07:56:49;27.40;99.90
11934;DHT22;6026;48.784;9.198;2023-09-12T07:59:15;27.40;99.90
11934;DHT22;6026;48.784;9.198;2023-09-12T08:01:40;27.50;99.90
11934;DHT22;6026;48.784;9.198;2023-09-12T08:04:06;27.70;99.90
11934;DHT22;6026;48.784;9.198;2023-09-12T08:06:32;27.70;99.90
11934;DHT22;6026;48.784;9.198;2023-09-12T08:08:58;27.70;99.90
11934;DHT22;6026;48.784;9.198;2023-09-12T08:11:24;27.70;99.90
11934;DHT22;6026;48.784;9.198;2023-09-12T08:13:50;27.50;99.90
11934;DHT22;6026;48.784;9.198;2023-09-12T08:16:16;27.60;99.90
11934;DHT22;6026;48.784;9.198;2023-09-12T08:18:41;27.40;99.90
11934;DHT22;6026;48.784;9.198;2023-09-12T08:21:07;27.70;99.90
11934;DHT22;6026;48.784;9.198;2023-09-12T08:23:33;27.50;99.90
11934;DHT22;6026;48.784;9.198;2023-09-12T08:25:59;27.90;99.90
11934;DHT22;6026;48.784;9.198;2023-09-12T08:28:25;27.90;99.90
11934;DHT22;6026;48.784;9.198;2023-09-12T08:30:51;28.00;99.90
11934;DHT22;6026;48.784;9.198;2023-09-12T08:33:16;27.80;99.90
11934;DHT22;6026;48.784;9.198;2023-09-12T08:35:42;27.60;99.90
11934;DHT22;6026;48.784;9.198;2023-09-12T08:38:08;27.60;99.90
11934;DHT22;6026;48.784;9.198;2023-09-12T08:40:34;27.70;99.90
11934;DHT22;6026;48.784;9.198;2023-09-12T08:43:01;27.50;99.90
11934;DHT22;6026;48.784;9.198;2023-09-12T08:45:29;27.40;99.90
11934;DHT22;6026;48.784;9.198;2023-09-12T08:47:56;27.60;99.90
11934;DHT22;6026;48.784;9.198;2023-09-12T08:50:23;28.20;99.90
11934;DHT22;6026;48.784;9.198;2023-09-12T08:52:50;28.90;99.90
11934;DHT22;6026;48.784;9.198;2023-09-12T08:55:16;29.30;99.90
11934;DHT22;6026;48.784;9.198;2023-09-12T08:57:42;29.60;99.90
11934;DHT22;6026;48.784;9.198;2023-09-12T09:00:09;30.00;99.90
11934;DHT22;6026;48.784;9.198;2023-09-12T09:02:36;30.30;99.90
11934;DHT22;6026;48.784;9.198;2023-09-12T09:05:04;30.70;99.90
11934;DHT22;6026;48.784;9.198;2023-09-12T09:07:33;31.20;99.90
11934;DHT22;6026;48.784;9.198;2023-09-12T09:10:02;31.20;99.90
11934;DHT22;6026;48.784;9.198;2023-09-12T09:12:29;31.80;99.90
11934;DHT22;6026;48.784;9.198;2023-09-12T09:14:54;31.80;99.90
11934;DHT22;6026;48.784;9.198;2023-09-12T09:17:20;32.30;99.90
11934;DHT22;6026;48.784;9.198;2023-09-12T09:19:46;32.50;99.90
11934;DHT22;6026;48.784;9.198;2023-09-12T09:22:11;32.60;99.90
11934;DHT22;6026;48.784;9.198;2023-09-12T09:24:37;32.30;99.90
11934;DHT22;6026;48.784;9.198;2023-09-12T09:27:03;32.60;99.90
11934;DHT22;6026;48.784;9.198;2023-09-12T09:29:29;32.30;99.90
11934;DHT22;6026;48.784;9.198;2023-09-12T09:32:01;32.50;99.90
11934;DHT22;6026;48.784;9.198;2023-09-12T09:34:27;33.00;99.90
11934;DHT22;6026;48.784;9.198;2023-09-12T09:36:57;33.10;99.90
11934;DHT22;6026;48.784;9.198;2023-09-12T09:39:27;33.10;99.90
11934;DHT22;6026;48.784;9.198;2023-09-12T09:41:57;33.20;99.90
11934;DHT22;6026;48.784;9.198;2023-09-12T09:44:25;33.50;99.90
11934;DHT22;6026;48.784;9.198;2023-09-12T09:46:59;33.90;99.90
11934;DHT22;6026;48.784;9.198;2023-09-12T09:49:28;33.80;99.90
11934;DHT22;6026;48.784;9.198;2023-09-12T09:51:56;34.10;99.90
11934;DHT22;6026;48.784;9.198;2023-09-12T09:54:24;33.70;99.90
11934;DHT22;6026;48.784;9.198;2023-09-12T09:56:55;33.50;99.90
11934;DHT22;6026;48.784;9.198;2023-09-12T09:59:23;33.80;99.90
11934;DHT22;6026;48.784;9.198;2023-09-12T10:01:50;33.90;99.90
11934;DHT22;6026;48.784;9.198;2023-09-12T10:04:17;34.30;99.90
11934;DHT22;6026;48.784;9.198;2023-09-12T10:06:45;34.60;99.90
11934;DHT22;6026;48.784;9.198;2023-09-12T10:09:12;34.60;99.90
11934;DHT22;6026;48.784;9.198;2023-09-12T10:11:42;34.60;99.90
11934;DHT22;6026;48.784;9.198;2023-09-12T10:14:09;35.00;99.90
11934;DHT22;6026;48.784;9.198;2023-09-12T10:16:38;34.80;99.90
11934;DHT22;6026;48.784;9.198;2023-09-12T10:21:37;34.80;99.90
11934;DHT22;6026;48.784;9.198;2023-09-12T10:24:07;35.00;99.70
11934;DHT22;6026;48.784;9.198;2023-09-12T10:26:34;35.50;98.70
11934;DHT22;6026;48.784;9.198;2023-09-12T10:29:00;35.40;98.70
11934;DHT22;6026;48.784;9.198;2023-09-12T10:31:28;35.70;98.90
11934;DHT22;6026;48.784;9.198;2023-09-12T10:33:54;35.30;97.70
11934;DHT22;6026;48.784;9.198;2023-09-12T10:36:20;35.00;98.10
11934;DHT22;6026;48.784;9.198;2023-09-12T10:38:48;35.00;98.20
11934;DHT22;6026;48.784;9.198;2023-09-12T10:41:15;35.20;98.20
11934;DHT22;6026;48.784;9.198;2023-09-12T10:43:44;35.00;98.20
11934;DHT22;6026;48.784;9.198;2023-09-12T10:46:12;35.20;97.70
11934;DHT22;6026;48.784;9.198;2023-09-12T10:48:38;35.40;97.50
11934;DHT22;6026;48.784;9.198;2023-09-12T10:51:06;35.00;97.00
11934;DHT22;6026;48.784;9.198;2023-09-12T10:53:33;34.90;97.00
11934;DHT22;6026;48.784;9.198;2023-09-12T10:56:00;34.90;97.30
11934;DHT22;6026;48.784;9.198;2023-09-12T10:58:26;35.20;97.40
11934;DHT22;6026;48.784;9.198;2023-09-12T11:01:24;35.40;97.10
11934;DHT22;6026;48.784;9.198;2023-09-12T11:03:51;35.30;96.80
11934;DHT22;6026;48.784;9.198;2023-09-12T11:06:27;35.80;96.20
11934;DHT22;6026;48.784;9.198;2023-09-12T11:09:32;35.60;96.50
11934;DHT22;6026;48.784;9.198;2023-09-12T11:12:02;35.50;96.60
11934;DHT22;6026;48.784;9.198;2023-09-12T11:14:28;35.70;96.30
11934;DHT22;6026;48.784;9.198;2023-09-12T11:19:46;35.20;96.30
11934;DHT22;6026;48.784;9.198;2023-09-12T11:22:32;35.50;96.00
11934;DHT22;6026;48.784;9.198;2023-09-12T11:25:03;35.30;96.50
11934;DHT22;6026;48.784;9.198;2023-09-12T11:27:33;35.30;96.00
11934;DHT22;6026;48.784;9.198;2023-09-12T11:30:09;35.70;95.90
11934;DHT22;6026;48.784;9.198;2023-09-12T11:32:36;35.80;95.70
11934;DHT22;6026;48.784;9.198;2023-09-12T11:35:06;35.70;95.50
11934;DHT22;6026;48.784;9.198;2023-09-12T11:37:32;35.70;95.70
11934;DHT22;6026;48.784;9.198;2023-09-12T11:39:59;35.80;95.70
11934;DHT22;6026;48.784;9.198;2023-09-12T11:42:24;35.80;95.60
11934;DHT22;6026;48.784;9.198;2023-09-12T11:44:51;35.70;95.20
11934;DHT22;6026;48.784;9.198;2023-09-12T11:47:17;35.70;95.80
11934;DHT22;6026;48.784;9.198;2023-09-12T11:49:42;35.60;95.40
11934;DHT22;6026;48.784;9.198;2023-09-12T11:52:09;35.30;95.40
11934;DHT22;6026;48.784;9.198;2023-09-12T11:54:35;35.30;95.70
11934;DHT22;6026;48.784;9.198;2023-09-12T11:57:05;35.30;95.60
11934;DHT22;6026;48.784;9.198;2023-09-12T11:59:36;35.20;95.80
11934;DHT22;6026;48.784;9.198;2023-09-12T12:02:09;35.10;95.30
11934;DHT22;6026;48.784;9.198;2023-09-12T12:04:36;35.50;95.80
11934;DHT22;6026;48.784;9.198;2023-09-12T12:07:02;35.60;95.20
11934;DHT22;6026;48.784;9.198;2023-09-12T12:09:30;35.70;95.20
11934;DHT22;6026;48.784;9.198;2023-09-12T12:11:56;35.70;94.90
11934;DHT22;6026;48.784;9.198;2023-09-12T12:14:26;35.80;94.70
11934;DHT22;6026;48.784;9.198;2023-09-12T12:16:52;36.00;94.90
11934;DHT22;6026;48.784;9.198;2023-09-12T12:19:18;36.20;94.50
11934;DHT22;6026;48.784;9.198;2023-09-12T12:21:43;36.10;94.30
11934;DHT22;6026;48.784;9.198;2023-09-12T12:24:14;35.90;94.50
11934;DHT22;6026;48.784;9.198;2023-09-12T12:26:43;35.70;94.50
11934;DHT22;6026;48.784;9.198;2023-09-12T12:29:10;35.60;94.50
11934;DHT22;6026;48.784;9.198;2023-09-12T12:31:37;35.70;94.40
11934;DHT22;6026;48.784;9.198;2023-09-12T12:34:04;35.70;94.40
11934;DHT22;6026;48.784;9.198;2023-09-12T12:36:30;35.80;94.70
11934;DHT22;6026;48.784;9.198;2023-09-12T12:38:55;35.70;94.10
11934;DHT22;6026;48.784;9.198;2023-09-12T12:41:26;35.70;93.70
11934;DHT22;6026;48.784;9.198;2023-09-12T12:43:52;35.60;93.80
11934;DHT22;6026;48.784;9.198;2023-09-12T12:46:18;35.50;94.10
11934;DHT22;6026;48.784;9.198;2023-09-12T12:48:47;35.40;93.20
11934;DHT22;6026;48.784;9.198;2023-09-12T12:51:33;35.60;93.60
11934;DHT22;6026;48.784;9.198;2023-09-12T12:54:05;35.70;93.20
11934;DHT22;6026;48.784;9.198;2023-09-12T12:56:33;35.80;93.00
11934;DHT22;6026;48.784;9.198;2023-09-12T12:59:00;36.00;92.30
11934;DHT22;6026;48.784;9.198;2023-09-12T13:01:29;36.00;92.70
11934;DHT22;6026;48.784;9.198;2023-09-12T13:03:55;36.20;92.30
11934;DHT22;6026;48.784;9.198;2023-09-12T13:06:22;36.30;92.50
11934;DHT22;6026;48.784;9.198;2023-09-12T13:08:49;36.10;92.00
11934;DHT22;6026;48.784;9.198;2023-09-12T13:11:15;35.90;92.30
11934;DHT22;6026;48.784;9.198;2023-09-12T13:13:42;35.90;92.40
11934;DHT22;6026;48.784;9.198;2023-09-12T13:16:09;36.10;92.20
11934;DHT22;6026;48.784;9.198;2023-09-12T13:18:38;36.00;92.50
11934;DHT22;6026;48.784;9.198;2023-09-12T13:21:05;36.20;92.50
11934;DHT22;6026;48.784;9.198;2023-09-12T13:23:32;36.20;91.80
11934;DHT22;6026;48.784;9.198;2023-09-12T13:25:58;36.10;92.10
11934;DHT22;6026;48.784;9.198;2023-09-12T13:28:24;36.30;92.00
11934;DHT22;6026;48.784;9.198;2023-09-12T13:30:51;36.40;92.00
11934;DHT22;6026;48.784;9.198;2023-09-12T13:33:17;36.40;91.60
11934;DHT22;6026;48.784;9.198;2023-09-12T13:35:43;36.30;91.30
11934;DHT22;6026;48.784;9.198;2023-09-12T13:38:08;36.20;91.40
11934;DHT22;6026;48.784;9.198;2023-09-12T13:40:40;36.00;91.70
11934;DHT22;6026;48.784;9.198;2023-09-12T13:43:06;35.80;91.60
11934;DHT22;6026;48.784;9.198;2023-09-12T13:45:32;35.80;91.70
11934;DHT22;6026;48.784;9.198;2023-09-12T13:47:59;35.70;91.60
11934;DHT22;6026;48.784;9.198;2023-09-12T13:50:26;35.90;92.10
11934;DHT22;6026;48.784;9.198;2023-09-12T13:52:54;35.80;92.00
11934;DHT22;6026;48.784;9.198;2023-09-12T13:55:21;35.90;91.90
11934;DHT22;6026;48.784;9.198;2023-09-12T13:57:47;35.70;91.70
11934;DHT22;6026;48.784;9.198;2023-09-12T14:00:12;35.80;92.60
11934;DHT22;6026;48.784;9.198;2023-09-12T14:02:38;36.00;92.40
11934;DHT22;6026;48.784;9.198;2023-09-12T14:05:04;35.90;92.30
11934;DHT22;6026;48.784;9.198;2023-09-12T14:07:30;36.10;92.40
11934;DHT22;6026;48.784;9.198;2023-09-12T14:09:55;36.10;92.70
11934;DHT22;6026;48.784;9.198;2023-09-12T14:12:23;35.90;92.30
11934;DHT22;6026;48.784;9.198;2023-09-12T14:14:49;35.70;92.50
11934;DHT22;6026;48.784;9.198;2023-09-12T14:17:14;35.90;93.10
11934;DHT22;6026;48.784;9.198;2023-09-12T14:19:40;35.90;92.70
11934;DHT22;6026;48.784;9.198;2023-09-12T14:22:06;35.90;93.10
11934;DHT22;6026;48.784;9.198;2023-09-12T14:24:31;35.80;93.60
11934;DHT22;6026;48.784;9.198;2023-09-12T14:26:57;35.60;93.50
11934;DHT22;6026;48.784;9.198;2023-09-12T14:29:23;35.50;93.20
11934;DHT22;6026;48.784;9.198;2023-09-12T14:31:49;35.30;93.30
11934;DHT22;6026;48.784;9.198;2023-09-12T14:34:19;34.90;93.70
11934;DHT22;6026;48.784;9.198;2023-09-12T14:36:44;34.70;93.90
11934;DHT22;6026;48.784;9.198;2023-09-12T14:39:13;34.50;94.40
11934;DHT22;6026;48.784;9.198;2023-09-12T14:41:40;34.10;94.50
11934;DHT22;6026;48.784;9.198;2023-09-12T14:44:05;33.90;94.70
11934;DHT22;6026;48.784;9.198;2023-09-12T14:46:31;33.80;94.90
11934;DHT22;6026;48.784;9.198;2023-09-12T14:48:57;33.70;95.50
11934;DHT22;6026;48.784;9.198;2023-09-12T14:51:23;33.60;95.20
11934;DHT22;6026;48.784;9.198;2023-09-12T14:53:48;33.60;95.00
11934;DHT22;6026;48.784;9.198;2023-09-12T14:56:14;33.40;95.20
11934;DHT22;6026;48.784;9.198;2023-09-12T14:58:39;33.20;95.60
11934;DHT22;6026;48.784;9.198;2023-09-12T15:01:05;33.20;95.80
11934;DHT22;6026;48.784;9.198;2023-09-12T15:03:31;33.10;96.10
11934;DHT22;6026;48.784;9.198;2023-09-12T15:05:56;33.00;96.30
11934;DHT22;6026;48.784;9.198;2023-09-12T15:08:22;32.90;96.60
11934;DHT22;6026;48.784;9.198;2023-09-12T15:10:47;32.90;96.60
11934;DHT22;6026;48.784;9.198;2023-09-12T15:13:13;32.80;97.10
11934;DHT22;6026;48.784;9.198;2023-09-12T15:15:39;32.70;97.10
11934;DHT22;6026;48.784;9.198;2023-09-12T15:18:05;32.60;97.30
11934;DHT22;6026;48.784;9.198;2023-09-12T15:20:31;32.70;97.20
11934;DHT22;6026;48.784;9.198;2023-09-12T15:22:57;32.70;97.40
11934;DHT22;6026;48.784;9.198;2023-09-12T15:25:22;32.70;97.30
11934;DHT22;6026;48.784;9.198;2023-09-12T15:27:48;32.80;97.20
11934;DHT22;6026;48.784;9.198;2023-09-12T15:30:14;32.90;97.50
11934;DHT22;6026;48.784;9.198;2023-09-12T15:32:39;32.70;97.00
11934;DHT22;6026;48.784;9.198;2023-09-12T15:35:05;32.80;96.40
11934;DHT22;6026;48.784;9.198;2023-09-12T15:37:31;32.70;96.90
11934;DHT22;6026;48.784;9.198;2023-09-12T15:39:56;32.70;97.00
11934;DHT22;6026;48.784;9.198;2023-09-12T15:42:22;32.70;97.10
11934;DHT22;6026;48.784;9.198;2023-09-12T15:44:48;32.50;96.70
11934;DHT22;6026;48.784;9.198;2023-09-12T15:47:13;32.40;96.80
11934;DHT22;6026;48.784;9.198;2023-09-12T15:49:39;32.30;96.80
11934;DHT22;6026;48.784;9.198;2023-09-12T15:52:05;32.20;96.80
11934;DHT22;6026;48.784;9.198;2023-09-12T15:54:30;32.10;96.70
11934;DHT22;6026;48.784;9.198;2023-09-12T15:56:56;32.00;97.10